Unabara — JI3188 — position and weather

sailwx.info

Track history (hours):
 
Tides and Currents Weather Stations Pressure Air Temp Water Temp Dewpoint Dewpoint Depression Visibility Wind Speed Wind Dir Waves Ship Positions

Unabara

Last reported at 2017-Nov-18 10:50 UTC. Time now 2017-Nov-18 14:21 UTC.
Position N 34°15' E 135°07'.

Length 30 m.

Type: Tug. MMSI: 431008888.

Date/timePositionNaut miles runAvg speedWind from/ knotsBaromVisibWave heightAir tempDewpointWater temp
2017-Nov-18 10:50N 34°15' E 135°07'1 2.0
2017-Nov-18 10:28N 34°14' E 135°08'0 0.1
2017-Nov-18 09:42N 34°14' E 135°08'0 1.6
2017-Nov-18 09:30N 34°14' E 135°07'2 2.9
2017-Nov-18 08:57N 34°14' E 135°05'1 3.1
2017-Nov-18 08:30N 34°14' E 135°07'1 1.2
2017-Nov-18 07:59N 34°14' E 135°08'0 0.0
2017-Nov-17 07:46N 34°14' E 135°07'0 0.3
2017-Nov-17 07:23N 34°14' E 135°07'0 0.7
2017-Nov-17 06:53N 34°15' E 135°07'0 0.0
2017-Nov-17 05:20N 34°15' E 135°07'0 0.0
2017-Nov-17 04:59N 34°15' E 135°07'0 0.1
2017-Nov-17 04:14N 34°15' E 135°07'1 1.3
2017-Nov-17 03:31N 34°14' E 135°08'0 0.3
2017-Nov-17 03:22N 34°14' E 135°08'2 3.1
2017-Nov-17 02:45N 34°14' E 135°05'1 3.3
2017-Nov-17 02:22N 34°13' E 135°06'1 1.6
2017-Nov-17 01:58N 34°14' E 135°05'0 0.5
2017-Nov-17 01:30N 34°14' E 135°05'1 1.2
2017-Nov-17 00:59N 34°14' E 135°06'2 3.4
2017-Nov-17 00:30N 34°14' E 135°08'0 0.6
2017-Nov-16 23:39N 34°14' E 135°07'0 1.6
2017-Nov-16 23:30N 34°14' E 135°07'2 3.3
2017-Nov-16 22:58N 34°14' E 135°05'2 3.6
2017-Nov-16 22:22N 34°14' E 135°08'1 3.3
2017-Nov-16 21:57N 34°14' E 135°06'1 2.0
2017-Nov-16 21:28N 34°14' E 135°05'2 0.2
2017-Nov-16 11:20N 34°15' E 135°07'0 1.0
2017-Nov-16 11:00N 34°14' E 135°07'1 1.0
2017-Nov-16 10:29N 34°14' E 135°08'1 1.0
2017-Nov-16 09:51N 34°15' E 135°07'0 0.0
2017-Nov-16 09:21N 34°15' E 135°07'0 0.0
2017-Nov-16 08:57N 34°15' E 135°07'0 0.9
2017-Nov-16 08:29N 34°14' E 135°06'0 1.0
2017-Nov-16 08:00N 34°15' E 135°07'  
2017-Nov-14 02:30N 34°15' E 135°07'1 1.4
2017-Nov-14 01:58N 34°14' E 135°08'2 2.7
2017-Nov-14 01:20N 34°14' E 135°06'1 2.3
2017-Nov-14 00:57N 34°14' E 135°06'1 3.1
2017-Nov-14 00:30N 34°14' E 135°07'0 0.5
2017-Nov-13 23:33N 34°15' E 135°07'0 8.3
2017-Nov-13 23:30N 34°14' E 135°07'0 0.5
2017-Nov-13 22:59N 34°14' E 135°08'0 0.8
2017-Nov-13 22:30N 34°14' E 135°07'2 2.4
2017-Nov-13 21:47N 34°13' E 135°07'2 0.1
2017-Nov-13 01:25N 34°15' E 135°07'0 0.9
2017-Nov-13 00:58N 34°14' E 135°07'0 0.0
2017-Nov-13 00:28N 34°14' E 135°07'0 0.9
2017-Nov-13 00:00N 34°14' E 135°08'0 0.0
2017-Nov-12 00:10N 34°14' E 135°07'0 1.7
2017-Nov-12 00:00N 34°14' E 135°07'1 0.4
2017-Nov-11 22:34N 34°15' E 135°07'0 5.0
2017-Nov-11 22:30N 34°14' E 135°07'1 1.1
2017-Nov-11 21:54N 34°14' E 135°08'1 2.1
2017-Nov-11 21:29N 34°15' E 135°07'0 0.0
2017-Nov-11 07:08N 34°15' E 135°07'0 2.3
2017-Nov-11 06:59N 34°14' E 135°07'0 0.1
2017-Nov-11 01:38N 34°15' E 135°07'0 0.0
2017-Nov-11 01:26N 34°15' E 135°07'0 0.0
2017-Nov-11 00:56N 34°15' E 135°07'0 0.0
2017-Nov-11 00:29N 34°15' E 135°07'0 0.0
2017-Nov-10 23:59N 34°15' E 135°07'0 0.0
2017-Nov-10 23:26N 34°15' E 135°07'0 0.0
2017-Nov-10 22:59N 34°15' E 135°07'1 1.0
2017-Nov-10 22:26N 34°14' E 135°06'1 2.0
2017-Nov-10 22:00N 34°14' E 135°05'1 1.9
2017-Nov-10 21:30N 34°13' E 135°06'1 2.9
2017-Nov-10 21:00N 34°15' E 135°07'0 0.0
2017-Nov-08 23:39N 34°15' E 135°07'0 1.5
2017-Nov-08 23:25N 34°14' E 135°07'0 0.2
2017-Nov-08 23:00N 34°14' E 135°07'1 2.1
2017-Nov-08 22:30N 34°14' E 135°06'1 1.3
2017-Nov-08 21:56N 34°15' E 135°07'1 0.1
2017-Nov-08 11:28N 34°14' E 135°08'  
Track history (hours):
 
Tides and Currents Weather Stations Pressure Air Temp Water Temp Dewpoint Dewpoint Depression Visibility Wind Speed Wind Dir Waves Ship Positions

Unabara

Last reported at 2017-Nov-18 10:50 UTC. Time now 2017-Nov-18 14:21 UTC.
Position N 34°15' E 135°07'.

Length 30 m.

Type: Tug. MMSI: 431008888.

Date/timePositionNaut miles runAvg speedWind from/ knotsBaromVisibWave heightAir tempDewpointWater temp
2017-Nov-18 10:50N 34°15' E 135°07'1 2.0
2017-Nov-18 10:28N 34°14' E 135°08'0 0.1
2017-Nov-18 09:42N 34°14' E 135°08'0 1.6
2017-Nov-18 09:30N 34°14' E 135°07'2 2.9
2017-Nov-18 08:57N 34°14' E 135°05'1 3.1
2017-Nov-18 08:30N 34°14' E 135°07'1 1.2
2017-Nov-18 07:59N 34°14' E 135°08'0 0.0
2017-Nov-17 07:46N 34°14' E 135°07'0 0.3
2017-Nov-17 07:23N 34°14' E 135°07'0 0.7
2017-Nov-17 06:53N 34°15' E 135°07'0 0.0
2017-Nov-17 05:20N 34°15' E 135°07'0 0.0
2017-Nov-17 04:59N 34°15' E 135°07'0 0.1
2017-Nov-17 04:14N 34°15' E 135°07'1 1.3
2017-Nov-17 03:31N 34°14' E 135°08'0 0.3
2017-Nov-17 03:22N 34°14' E 135°08'2 3.1
2017-Nov-17 02:45N 34°14' E 135°05'1 3.3
2017-Nov-17 02:22N 34°13' E 135°06'1 1.6
2017-Nov-17 01:58N 34°14' E 135°05'0 0.5
2017-Nov-17 01:30N 34°14' E 135°05'1 1.2
2017-Nov-17 00:59N 34°14' E 135°06'2 3.4
2017-Nov-17 00:30N 34°14' E 135°08'0 0.6
2017-Nov-16 23:39N 34°14' E 135°07'0 1.6
2017-Nov-16 23:30N 34°14' E 135°07'2 3.3
2017-Nov-16 22:58N 34°14' E 135°05'2 3.6
2017-Nov-16 22:22N 34°14' E 135°08'1 3.3
2017-Nov-16 21:57N 34°14' E 135°06'1 2.0
2017-Nov-16 21:28N 34°14' E 135°05'2 0.2
2017-Nov-16 11:20N 34°15' E 135°07'0 1.0
2017-Nov-16 11:00N 34°14' E 135°07'1 1.0
2017-Nov-16 10:29N 34°14' E 135°08'1 1.0
2017-Nov-16 09:51N 34°15' E 135°07'0 0.0
2017-Nov-16 09:21N 34°15' E 135°07'0 0.0
2017-Nov-16 08:57N 34°15' E 135°07'0 0.9
2017-Nov-16 08:29N 34°14' E 135°06'0 1.0
2017-Nov-16 08:00N 34°15' E 135°07'  
2017-Nov-14 02:30N 34°15' E 135°07'1 1.4
2017-Nov-14 01:58N 34°14' E 135°08'2 2.7
2017-Nov-14 01:20N 34°14' E 135°06'1 2.3
2017-Nov-14 00:57N 34°14' E 135°06'1 3.1
2017-Nov-14 00:30N 34°14' E 135°07'0 0.5
2017-Nov-13 23:33N 34°15' E 135°07'0 8.3
2017-Nov-13 23:30N 34°14' E 135°07'0 0.5
2017-Nov-13 22:59N 34°14' E 135°08'0 0.8
2017-Nov-13 22:30N 34°14' E 135°07'2 2.4
2017-Nov-13 21:47N 34°13' E 135°07'2 0.1
2017-Nov-13 01:25N 34°15' E 135°07'0 0.9
2017-Nov-13 00:58N 34°14' E 135°07'0 0.0
2017-Nov-13 00:28N 34°14' E 135°07'0 0.9
2017-Nov-13 00:00N 34°14' E 135°08'0 0.0
2017-Nov-12 00:10N 34°14' E 135°07'0 1.7
2017-Nov-12 00:00N 34°14' E 135°07'1 0.4
2017-Nov-11 22:34N 34°15' E 135°07'0 5.0
2017-Nov-11 22:30N 34°14' E 135°07'1 1.1
2017-Nov-11 21:54N 34°14' E 135°08'1 2.1
2017-Nov-11 21:29N 34°15' E 135°07'0 0.0
2017-Nov-11 07:08N 34°15' E 135°07'0 2.3
2017-Nov-11 06:59N 34°14' E 135°07'0 0.1
2017-Nov-11 01:38N 34°15' E 135°07'0 0.0
2017-Nov-11 01:26N 34°15' E 135°07'0 0.0
2017-Nov-11 00:56N 34°15' E 135°07'0 0.0
2017-Nov-11 00:29N 34°15' E 135°07'0 0.0
2017-Nov-10 23:59N 34°15' E 135°07'0 0.0
2017-Nov-10 23:26N 34°15' E 135°07'0 0.0
2017-Nov-10 22:59N 34°15' E 135°07'1 1.0
2017-Nov-10 22:26N 34°14' E 135°06'1 2.0
2017-Nov-10 22:00N 34°14' E 135°05'1 1.9
2017-Nov-10 21:30N 34°13' E 135°06'1 2.9
2017-Nov-10 21:00N 34°15' E 135°07'0 0.0
2017-Nov-08 23:39N 34°15' E 135°07'0 1.5
2017-Nov-08 23:25N 34°14' E 135°07'0 0.2
2017-Nov-08 23:00N 34°14' E 135°07'1 2.1
2017-Nov-08 22:30N 34°14' E 135°06'1 1.3
2017-Nov-08 21:56N 34°15' E 135°07'1 0.1
2017-Nov-08 11:28N 34°14' E 135°08'  

Dump ship's entire track history